createdAt,value
2022-11-28T00:03:44.780Z,3.48
2022-11-28T00:07:48.114Z,3.46
2022-11-28T00:11:52.641Z,3.42
2022-11-28T00:15:58.886Z,3.40
2022-11-28T00:20:02.034Z,3.34
2022-11-28T00:24:05.541Z,3.32
2022-11-28T00:28:09.819Z,3.30
2022-11-28T00:32:12.907Z,3.26
2022-11-28T00:36:16.701Z,3.30
2022-11-28T00:40:19.795Z,3.21
2022-11-28T00:44:24.735Z,3.22
2022-11-28T00:48:28.157Z,3.18
2022-11-28T00:52:33.278Z,3.16
2022-11-28T00:56:39.011Z,3.06
2022-11-28T01:00:43.364Z,2.96
2022-11-28T01:04:46.313Z,2.95
2022-11-28T01:08:49.332Z,2.91
2022-11-28T01:12:52.458Z,2.87
2022-11-28T01:16:56.728Z,2.85
2022-11-28T01:20:59.593Z,2.83
2022-11-28T01:25:02.564Z,2.79
2022-11-28T01:29:05.526Z,2.76
2022-11-28T01:33:09.840Z,2.79
2022-11-28T01:37:12.775Z,2.73
2022-11-28T01:41:17.522Z,2.71
2022-11-28T01:45:23.334Z,2.69
2022-11-28T01:49:32.677Z,2.69
2022-11-28T01:53:39.009Z,2.65
2022-11-28T01:57:42.457Z,2.65
2022-11-28T02:01:46.579Z,2.60
2022-11-28T02:05:52.221Z,2.63
2022-11-28T02:09:56.186Z,2.53
2022-11-28T02:14:11.146Z,2.49
2022-11-28T02:18:30.793Z,2.50
2022-11-28T02:22:41.989Z,2.48
2022-11-28T02:27:19.826Z,2.50
2022-11-28T02:31:37.551Z,2.50
2022-11-28T02:35:53.426Z,2.56
2022-11-28T02:40:08.165Z,2.58
2022-11-28T02:44:16.993Z,2.60
2022-11-28T02:48:28.287Z,2.64
2022-11-28T02:52:37.351Z,2.70
2022-11-28T02:56:40.549Z,2.69
2022-11-28T03:00:45.758Z,2.73
2022-11-28T03:04:56.666Z,2.78
2022-11-28T03:09:25.905Z,2.80
2022-11-28T03:13:36.424Z,2.85
2022-11-28T03:17:47.348Z,2.90
2022-11-28T03:22:00.049Z,2.94
2022-11-28T03:26:08.937Z,2.98
2022-11-28T03:30:19.478Z,3.00
2022-11-28T03:34:25.852Z,3.01
2022-11-28T03:38:34.548Z,3.00
2022-11-28T03:42:42.456Z,3.02
2022-11-28T03:46:48.068Z,3.06
2022-11-28T03:50:59.581Z,3.08
2022-11-28T03:55:07.155Z,3.10
2022-11-28T03:59:17.213Z,3.09
2022-11-28T04:03:27.991Z,3.07
2022-11-28T04:07:38.769Z,3.12
2022-11-28T04:11:48.968Z,3.10
2022-11-28T04:16:00.544Z,3.11
2022-11-28T04:20:10.148Z,3.14
2022-11-28T04:24:16.519Z,3.14
2022-11-28T04:28:23.473Z,3.16
2022-11-28T04:32:30.099Z,3.14
2022-11-28T04:36:35.695Z,3.15
2022-11-28T04:40:46.086Z,3.18
2022-11-28T04:44:54.728Z,3.17
2022-11-28T04:48:59.189Z,3.20
2022-11-28T04:53:06.756Z,3.18
2022-11-28T04:57:15.816Z,3.20
2022-11-28T05:01:23.501Z,3.22
2022-11-28T05:05:28.449Z,3.26
2022-11-28T05:09:31.715Z,3.27
2022-11-28T05:13:34.668Z,3.25
2022-11-28T05:17:42.125Z,3.28
2022-11-28T05:21:47.273Z,3.28
2022-11-28T05:25:50.254Z,3.27
2022-11-28T05:29:53.913Z,3.22
2022-11-28T05:33:57.569Z,3.20
2022-11-28T05:38:02.317Z,3.16
2022-11-28T05:42:05.669Z,3.14
2022-11-28T05:46:08.637Z,3.10
2022-11-28T05:50:12.107Z,3.11
2022-11-28T05:54:16.523Z,3.12
2022-11-28T05:58:19.470Z,3.12
2022-11-28T06:02:22.416Z,3.13
2022-11-28T06:06:27.080Z,3.14
2022-11-28T06:10:32.109Z,3.15
2022-11-28T06:14:35.343Z,3.15
2022-11-28T06:18:38.358Z,3.19
2022-11-28T06:22:41.589Z,3.19
2022-11-28T06:26:45.912Z,3.19
2022-11-28T06:30:48.806Z,3.23
2022-11-28T06:34:51.714Z,3.24
2022-11-28T06:38:55.075Z,3.28
2022-11-28T06:42:59.435Z,3.26
2022-11-28T06:47:02.566Z,3.21
2022-11-28T06:51:07.375Z,3.23
2022-11-28T06:55:10.907Z,3.22
2022-11-28T06:59:15.297Z,3.23
2022-11-28T07:03:18.354Z,3.22
2022-11-28T07:07:21.538Z,3.20
2022-11-28T07:11:26.488Z,3.23
2022-11-28T07:15:30.880Z,3.25
2022-11-28T07:19:34.363Z,3.27
2022-11-28T07:23:37.617Z,3.25
2022-11-28T07:27:40.503Z,3.26
2022-11-28T07:31:45.417Z,3.27
2022-11-28T07:35:48.326Z,3.26
2022-11-28T07:39:51.283Z,3.32
2022-11-28T07:43:56.056Z,3.27
2022-11-28T07:48:00.300Z,3.33
2022-11-28T07:52:03.229Z,3.33
2022-11-28T07:56:07.929Z,3.36
2022-11-28T08:00:11.695Z,3.40
2022-11-28T08:04:19.552Z,3.43
2022-11-28T08:08:22.501Z,3.45
2022-11-28T08:12:25.498Z,3.52
2022-11-28T08:16:30.250Z,3.57
2022-11-28T08:20:34.877Z,3.57
2022-11-28T08:24:37.846Z,3.74
2022-11-28T08:28:41.339Z,3.92
2022-11-28T08:32:44.224Z,3.95
2022-11-28T08:36:49.098Z,3.96
2022-11-28T08:40:51.977Z,3.98
2022-11-28T08:44:55.032Z,3.96
2022-11-28T08:48:57.962Z,3.98
2022-11-28T08:53:07.688Z,4.01
2022-11-28T08:57:11.071Z,4.06
2022-11-28T09:01:18.852Z,4.10
2022-11-28T09:05:21.773Z,4.14
2022-11-28T09:09:30.182Z,4.21
2022-11-28T09:13:35.535Z,4.23
2022-11-28T09:17:38.417Z,4.29
2022-11-28T09:21:42.111Z,4.33
2022-11-28T09:25:46.406Z,4.39
2022-11-28T09:29:49.298Z,4.43
2022-11-28T09:33:52.367Z,4.47
2022-11-28T09:37:55.254Z,4.55
2022-11-28T09:42:12.818Z,4.65
2022-11-28T09:46:24.119Z,4.64
2022-11-28T09:50:31.671Z,4.71
2022-11-28T09:54:44.978Z,4.76
2022-11-28T09:58:55.830Z,4.81
2022-11-28T10:03:33.881Z,4.87
2022-11-28T10:07:53.635Z,4.91
2022-11-28T10:12:12.740Z,4.99
2022-11-28T10:16:24.107Z,5.01
2022-11-28T10:20:29.476Z,5.02
2022-11-28T10:24:38.368Z,5.06
2022-11-28T10:28:45.014Z,5.09
2022-11-28T10:32:56.557Z,5.16
2022-11-28T10:37:04.479Z,5.29
2022-11-28T10:41:15.657Z,5.39
2022-11-28T10:45:27.567Z,5.47
2022-11-28T10:49:46.068Z,5.58
2022-11-28T10:54:00.575Z,5.67
2022-11-28T10:58:15.726Z,5.73
2022-11-28T11:02:23.426Z,5.77
2022-11-28T11:06:40.883Z,5.82
2022-11-28T11:10:50.948Z,5.84
2022-11-28T11:14:54.268Z,5.89
2022-11-28T11:18:57.345Z,5.94
2022-11-28T11:23:04.233Z,5.99
2022-11-28T11:27:15.985Z,6.00
2022-11-28T11:31:25.789Z,5.99
2022-11-28T11:35:32.357Z,5.95
2022-11-28T11:39:49.336Z,5.91
2022-11-28T11:43:52.204Z,5.90
2022-11-28T11:47:55.684Z,5.90
2022-11-28T11:52:00.260Z,5.86
2022-11-28T11:56:05.262Z,5.79
2022-11-28T12:00:16.142Z,5.78
2022-11-28T12:04:44.720Z,5.74
2022-11-28T12:08:52.312Z,5.71
2022-11-28T12:12:56.681Z,5.70
2022-11-28T12:17:46.927Z,5.68
2022-11-28T12:21:44.349Z,5.65
2022-11-28T12:25:53.598Z,5.64
2022-11-28T12:30:07.492Z,5.61
2022-11-28T12:34:22.835Z,5.56
2022-11-28T12:38:36.429Z,5.52
2022-11-28T12:42:51.610Z,5.49
2022-11-28T12:47:04.426Z,5.48
2022-11-28T12:51:20.492Z,5.42
2022-11-28T12:55:31.596Z,5.42
2022-11-28T12:59:43.987Z,5.40
2022-11-28T13:04:04.628Z,5.34
2022-11-28T13:08:23.352Z,5.29
2022-11-28T13:12:36.184Z,5.24
2022-11-28T13:16:44.839Z,5.11
2022-11-28T13:20:53.924Z,5.09
2022-11-28T13:25:03.612Z,5.04
2022-11-28T13:29:17.780Z,5.01
2022-11-28T13:33:37.788Z,4.98
2022-11-28T13:46:51.556Z,4.88
2022-11-28T13:51:02.190Z,4.83
2022-11-28T13:55:27.970Z,4.80
2022-11-28T13:59:33.633Z,4.72
2022-11-28T14:03:45.196Z,4.64
2022-11-28T14:07:49.033Z,4.61
2022-11-28T14:12:07.765Z,4.57
2022-11-28T14:16:23.934Z,4.51
2022-11-28T14:20:33.654Z,4.48
2022-11-28T14:24:52.991Z,4.47
2022-11-28T14:28:56.108Z,4.59
2022-11-28T14:33:03.564Z,4.62
2022-11-28T14:37:57.731Z,4.53
2022-11-28T14:42:59.652Z,4.48
2022-11-28T14:47:08.065Z,4.42
2022-11-28T14:51:12.451Z,4.38
2022-11-28T14:55:22.383Z,4.39
2022-11-28T14:59:34.108Z,4.31
2022-11-28T15:03:44.051Z,4.24
2022-11-28T15:08:02.250Z,4.27
2022-11-28T15:12:17.738Z,4.26
2022-11-28T15:16:22.681Z,4.22
2022-11-28T15:20:30.569Z,4.21
2022-11-28T15:24:36.604Z,4.18
2022-11-28T15:28:39.861Z,4.12
2022-11-28T15:32:43.949Z,4.07
2022-11-28T15:36:52.758Z,4.06
2022-11-28T15:40:58.359Z,4.03
2022-11-28T15:45:06.480Z,3.97
2022-11-28T15:49:24.320Z,3.93
2022-11-28T15:53:27.674Z,3.89
2022-11-28T15:57:33.444Z,3.84
2022-11-28T16:01:36.660Z,3.82
2022-11-28T16:05:40.693Z,3.80
2022-11-28T16:09:57.067Z,3.79
2022-11-28T16:14:08.760Z,3.75
2022-11-28T16:18:15.236Z,3.73
2022-11-28T16:22:20.756Z,3.70
2022-11-28T16:26:31.740Z,3.67
2022-11-28T16:30:38.261Z,3.64
2022-11-28T16:34:46.777Z,3.64
2022-11-28T16:38:51.843Z,3.65
2022-11-28T16:42:56.420Z,3.70
2022-11-28T16:47:01.731Z,3.71
2022-11-28T16:51:30.464Z,3.71
2022-11-28T16:55:41.586Z,3.77
2022-11-28T16:59:46.195Z,3.81
2022-11-28T17:03:53.566Z,3.80
2022-11-28T17:07:57.492Z,3.77
2022-11-28T17:12:04.863Z,3.78
2022-11-28T17:16:16.308Z,3.81
2022-11-28T17:20:20.998Z,3.80
2022-11-28T17:24:26.521Z,3.81
2022-11-28T17:28:29.525Z,3.84
2022-11-28T17:32:32.501Z,3.85
2022-11-28T17:36:36.979Z,3.84
2022-11-28T17:40:42.247Z,3.85
2022-11-28T17:44:45.673Z,3.87
2022-11-28T17:48:49.106Z,3.86
2022-11-28T17:52:53.686Z,3.81
2022-11-28T17:56:56.770Z,3.81
2022-11-28T18:01:00.984Z,3.81
2022-11-28T18:05:05.214Z,3.82
2022-11-28T18:09:12.644Z,3.83
2022-11-28T18:13:17.674Z,3.85
2022-11-28T18:17:20.786Z,3.89
2022-11-28T18:21:25.028Z,3.87
2022-11-28T18:25:29.797Z,3.85
2022-11-28T18:29:34.348Z,3.83
2022-11-28T18:33:37.871Z,3.82
2022-11-28T18:37:41.298Z,3.82
2022-11-28T18:41:45.765Z,3.84
2022-11-28T18:45:48.982Z,3.77
2022-11-28T18:49:52.347Z,3.78
2022-11-28T18:53:56.869Z,3.78
2022-11-28T18:58:01.695Z,3.74
2022-11-28T19:02:04.816Z,3.72
2022-11-28T19:06:10.533Z,3.68
2022-11-28T19:10:14.522Z,3.66
2022-11-28T19:14:21.273Z,3.65
2022-11-28T19:18:24.392Z,3.63
2022-11-28T19:22:27.706Z,3.65
2022-11-28T19:26:33.535Z,3.61
2022-11-28T19:30:38.209Z,3.62
2022-11-28T19:34:41.719Z,3.59
2022-11-28T19:38:44.767Z,3.55
2022-11-28T19:42:48.913Z,3.55
2022-11-28T19:46:53.860Z,3.56
2022-11-28T19:50:57.996Z,3.56
2022-11-28T19:55:01.291Z,3.52
2022-11-28T19:59:04.477Z,3.55
2022-11-28T20:03:09.375Z,3.54
2022-11-28T20:07:12.550Z,3.52
2022-11-28T20:11:17.556Z,3.49
2022-11-28T20:15:20.702Z,3.44
2022-11-28T20:19:26.303Z,3.44
2022-11-28T20:23:30.021Z,3.43
2022-11-28T20:27:34.537Z,3.43
2022-11-28T20:31:42.029Z,3.43
2022-11-28T20:35:46.573Z,3.38
2022-11-28T20:39:49.629Z,3.38
2022-11-28T20:43:52.806Z,3.38
2022-11-28T20:47:55.770Z,3.34
2022-11-28T20:52:00.178Z,3.35
2022-11-28T20:56:05.457Z,3.36
2022-11-28T21:00:09.895Z,3.38
2022-11-28T21:04:16.141Z,3.32
2022-11-28T21:08:20.712Z,3.37
2022-11-28T21:12:24.532Z,3.36
2022-11-28T21:16:29.359Z,3.38
2022-11-28T21:20:32.624Z,3.38
2022-11-28T21:24:37.310Z,3.37
2022-11-28T21:28:41.855Z,3.33
2022-11-28T21:32:44.855Z,3.33
2022-11-28T21:36:48.030Z,3.33
2022-11-28T21:40:55.511Z,3.28
2022-11-28T21:44:58.556Z,3.28
2022-11-28T21:49:01.989Z,3.24
2022-11-28T21:53:05.243Z,3.22
2022-11-28T21:57:10.470Z,3.23
2022-11-28T22:01:15.176Z,3.22
2022-11-28T22:05:18.988Z,3.23
2022-11-28T22:09:22.125Z,3.23
2022-11-28T22:13:26.737Z,3.21
2022-11-28T22:17:31.857Z,3.21
2022-11-28T22:21:54.485Z,3.14
2022-11-28T22:25:59.640Z,3.12
2022-11-28T22:30:04.229Z,3.15
2022-11-28T22:34:07.483Z,3.13
2022-11-28T22:38:11.180Z,3.11
2022-11-28T22:42:14.199Z,3.09
2022-11-28T22:46:18.773Z,3.13
2022-11-28T22:50:22.244Z,3.11
2022-11-28T22:54:25.200Z,3.08
2022-11-28T22:58:28.877Z,3.14
2022-11-28T23:02:33.540Z,3.13
2022-11-28T23:06:37.121Z,3.14
2022-11-28T23:10:40.902Z,3.15
2022-11-28T23:14:44.550Z,3.14
2022-11-28T23:18:51.977Z,3.11
2022-11-28T23:22:56.371Z,3.06
2022-11-28T23:26:59.653Z,3.02
2022-11-28T23:31:07.443Z,3.00
2022-11-28T23:35:11.821Z,2.96
2022-11-28T23:39:16.707Z,2.94
2022-11-28T23:43:19.729Z,2.93
2022-11-28T23:47:22.722Z,2.95
2022-11-28T23:51:27.465Z,2.95
2022-11-28T23:55:30.457Z,2.93
2022-11-28T23:59:33.483Z,2.92
